Map

Track Data

SID SEASON NUMBER BASIN SUBBASIN NAME ISO_TIME NATURE LAT LON WMO_WIND WMO_PRES WMO_AGENCY TRACK_TYPE DIST2LAND LANDFALL IFLAG USA_AGENCY USA_ATCF_ID USA_LAT USA_LON USA_RECORD USA_STATUS USA_WIND USA_PRES USA_SSHS USA_R34_NE USA_R34_SE USA_R34_SW USA_R34_NW USA_R50_NE USA_R50_SE USA_R50_SW USA_R50_NW USA_R64_NE USA_R64_SE USA_R64_SW USA_R64_NW USA_POCI USA_ROCI USA_RMW USA_EYE TOKYO_LAT TOKYO_LON TOKYO_GRADE TOKYO_WIND TOKYO_PRES TOKYO_R50_DIR TOKYO_R50_LONG TOKYO_R50_SHORT TOKYO_R30_DIR TOKYO_R30_LONG TOKYO_R30_SHORT TOKYO_LAND CMA_LAT CMA_LON CMA_CAT CMA_WIND CMA_PRES HKO_LAT HKO_LON HKO_CAT HKO_WIND HKO_PRES NEWDELHI_LAT NEWDELHI_LON NEWDELHI_GRADE NEWDELHI_WIND NEWDELHI_PRES NEWDELHI_CI NEWDELHI_DP NEWDELHI_POCI REUNION_LAT REUNION_LON REUNION_TYPE REUNION_WIND REUNION_PRES REUNION_TNUM REUNION_CI REUNION_RMW REUNION_R34_NE REUNION_R34_SE REUNION_R34_SW REUNION_R34_NW REUNION_R50_NE REUNION_R50_SE REUNION_R50_SW REUNION_R50_NW REUNION_R64_NE REUNION_R64_SE REUNION_R64_SW REUNION_R64_NW BOM_LAT BOM_LON BOM_TYPE BOM_WIND BOM_PRES BOM_TNUM BOM_CI BOM_RMW BOM_R34_NE BOM_R34_SE BOM_R34_SW BOM_R34_NW BOM_R50_NE BOM_R50_SE BOM_R50_SW BOM_R50_NW BOM_R64_NE BOM_R64_SE BOM_R64_SW BOM_R64_NW BOM_ROCI BOM_POCI BOM_EYE BOM_POS_METHOD BOM_PRES_METHOD NADI_LAT NADI_LON NADI_CAT NADI_WIND NADI_PRES WELLINGTON_LAT WELLINGTON_LON WELLINGTON_WIND WELLINGTON_PRES DS824_LAT DS824_LON DS824_STAGE DS824_WIND DS824_PRES TD9636_LAT TD9636_LON TD9636_STAGE TD9636_WIND TD9636_PRES TD9635_LAT TD9635_LON TD9635_WIND TD9635_PRES TD9635_ROCI NEUMANN_LAT NEUMANN_LON NEUMANN_CLASS NEUMANN_WIND NEUMANN_PRES MLC_LAT MLC_LON MLC_CLASS MLC_WIND MLC_PRES USA_GUST BOM_GUST BOM_GUST_PER REUNION_GUST REUNION_GUST_PER USA_SEAHGT USA_SEARAD_NE USA_SEARAD_SE USA_SEARAD_SW USA_SEARAD_NW STORM_SPEED STORM_DIR
1988211N15225 1988 41 EP MM GILMA 1988-07-28 12:00:00 TS 15.1000 -135.000 25 1010 hurdat_epa main 2157 2141 O_________O___ hurdat_epa EP071988 15.1000 -135.000 TD 25 1010 -1 15.1000 -135.000 1 25 6 330
1988211N15225 1988 41 EP MM GILMA 1988-07-28 15:00:00 TS 15.3614 -135.153 main 2128 2111 P_________P___ EP071988 15.3875 -135.162 TD 25 1009 -1 15.2829 -135.123 1 26 5 329
1988211N15225 1988 41 EP MM GILMA 1988-07-28 18:00:00 TS 15.5631 -135.287 25 1009 hurdat_epa main 2111 2098 O_________P___ hurdat_epa EP071988 15.6000 -135.300 TD 25 1009 -1 15.4525 -135.247 1 27 4 323
1988211N15225 1988 41 EP MM GILMA 1988-07-28 21:00:00 TS 15.6646 -135.393 main 2098 2088 P_________P___ EP071988 15.6875 -135.400 TD 27 1008 -1 15.5960 -135.373 1 28 2 304
1988211N15225 1988 41 EP MM GILMA 1988-07-29 00:00:00 TS 15.7000 -135.500 30 1008 hurdat_epa main 2088 2077 O_________O___ hurdat_epa EP071988 15.7000 -135.500 TD 30 1008 -1 15.7000 -135.500 1 30 2 282
1988211N15225 1988 41 EP MM GILMA 1988-07-29 03:00:00 TS 15.7142 -135.645 main 2077 2057 P_________P___ EP071988 15.7000 -135.650 TD 32 1007 -1 15.7569 -135.629 1 32 3 274
1988211N15225 1988 41 EP MM GILMA 1988-07-29 06:00:00 TS 15.7200 -135.789 35 1006 hurdat_epa main 2057 2044 O_________P___ hurdat_epa EP071988 15.7000 -135.800 TS 35 1006 0 15.7800 -135.758 1 35 3 279
1988211N15225 1988 41 EP MM GILMA 1988-07-29 09:00:00 TS 15.7539 -135.901 main 2044 2033 P_________P___ EP071988 15.7425 -135.908 TS 37 1004 0 15.7881 -135.882 1 37 2 292
1988211N15225 1988 41 EP MM GILMA 1988-07-29 12:00:00 TS 15.8000 -136.000 40 1003 hurdat_epa main 2033 2023 O_________O___ hurdat_epa EP071988 15.8000 -136.000 TS 40 1003 0 15.8000 -136.000 2 40 2 296
1988211N15225 1988 41 EP MM GILMA 1988-07-29 15:00:00 TS 15.8492 -136.102 main 2023 2010 P_________P___ EP071988 15.8500 -136.100 TS 42 1001 0 15.8468 -136.107 2 41 2 297
1988211N15225 1988 41 EP MM GILMA 1988-07-29 18:00:00 TS 15.9000 -136.202 45 1000 hurdat_epa main 2010 1997 O_________P___ hurdat_epa EP071988 15.9000 -136.200 TS 45 1000 0 15.9000 -136.207 2 42 2 298
1988211N15225 1988 41 EP MM GILMA 1988-07-29 21:00:00 TS 15.9564 -136.312 main 1997 1986 P_________P___ EP071988 15.9575 -136.315 TS 45 1000 0 15.9531 -136.304 2 43 2 298
1988211N15225 1988 41 EP MM GILMA 1988-07-30 00:00:00 TS 16.0000 -136.400 45 1000 hurdat_epa main 1986 1986 O_________O___ hurdat_epa EP071988 16.0000 -136.400 TS 45 1000 0 16.0000 -136.400 2 45 1 304
1988211N15225 1988 41 EP MM GILMA 1988-07-30 03:00:00 TS 16.0006 -136.387 main 1986 1986 P_________P___ EP071988 16.0000 -136.385 TS 42 1001 0 16.0027 -136.391 2 42 0 0
1988211N15225 1988 41 EP MM GILMA 1988-07-30 06:00:00 TS 16.0008 -136.400 40 1002 hurdat_epa main 1986 1976 O_________P___ hurdat_epa EP071988 16.0000 -136.400 TS 40 1002 0 16.0031 -136.399 2 40 1 280
1988211N15225 1988 41 EP MM GILMA 1988-07-30 09:00:00 TS 16.0216 -136.509 main 1976 1942 P_________P___ EP071988 16.0197 -136.510 TS 37 1003 0 16.0270 -136.507 2 37 4 284
1988211N15225 1988 41 EP MM GILMA 1988-07-30 12:00:00 TS 16.1000 -136.800 35 1005 hurdat_epa main 1942 1885 O_________O___ hurdat_epa EP071988 16.1000 -136.800 TS 35 1005 0 16.1000 -136.800 2 35 8 288
1988211N15225 1988 41 EP MM GILMA 1988-07-30 15:00:00 TS 16.2730 -137.323 main 1885 1807 P_________P___ EP071988 16.2772 -137.288 TS 32 1006 -1 16.2603 -137.428 2 33 13 288
1988211N15225 1988 41 EP MM GILMA 1988-07-30 18:00:00 TS 16.4916 -138.059 30 1007 hurdat_epa main 1797 1698 O_________P___ hurdat_epa EP071988 16.5000 -138.000 TD 30 1007 -1 16.4662 -138.236 2 32 17 285
1988211N15225 1988 41 EP MM GILMA 1988-07-30 21:00:00 TS 16.7037 -139.021 main 1698 1600 P_________P___ EP071988 16.7087 -138.995 TD 30 1007 -1 16.6886 -139.100 2 31 18 283
1988211N15225 1988 41 EP MM GILMA 1988-07-31 00:00:00 TS 16.9000 -139.900 30 1008 hurdat_epa main 1600 1553 O_________O___ hurdat_epa EP071988 16.9000 -139.900 TD 30 1008 -1 16.9000 -139.900 1 30 13 286
1988211N15225 1988 41 EP CP GILMA 1988-07-31 03:00:00 TS 17.0589 -140.294 main 1553 1520 P_________P___ EP071988 17.0564 -140.245 TD 27 1008 -1 17.0664 -140.438 1 28 7 295
1988211N15225 1988 41 EP CP GILMA 1988-07-31 06:00:00 TS 17.2047 -140.593 25 1009 hurdat_epa main 1520 1465 O_________P___ hurdat_epa EP071988 17.2000 -140.500 TD 25 1009 -1 17.2198 -140.896 1 27 9 290
1988211N15225 1988 41 EP CP GILMA 1988-07-31 09:00:00 TS 17.3529 -141.161 main 1453 1388 P_________P___ EP071988 17.3503 -141.105 TD 25 1009 -1 17.3634 -141.331 1 26 12 284
1988211N15225 1988 41 EP CP GILMA 1988-07-31 12:00:00 TS 17.5000 -141.800 25 1009 hurdat_epa main 1388 1324 O_________O___ hurdat_epa EP071988 17.5000 -141.800 TD 25 1009 -1 17.5000 -141.800 1 25 12 284
1988211N15225 1988 41 EP CP GILMA 1988-07-31 15:00:00 TS 17.6530 -142.397 main 1322 1257 P_________P___ EP071988 17.6572 -142.400 TD 25 1009 -1 17.6362 -142.378 1 25 12 284
1988211N15225 1988 41 EP CP GILMA 1988-07-31 18:00:00 TS 17.7930 -143.000 25 1009 hurdat_epa main 1257 1192 O_________P___ hurdat_epa EP071988 17.8000 -143.000 TD 25 1009 -1 17.7648 -142.998 1 25 12 282
1988211N15225 1988 41 EP CP GILMA 1988-07-31 21:00:00 TS 17.9031 -143.631 main 1192 1128 P_________P___ EP071988 17.9074 -143.643 TD 25 1009 -1 17.8860 -143.644 1 25 12 280
1988211N15225 1988 41 EP CP GILMA 1988-08-01 00:00:00 TS 18.0000 -144.280 25 1010 hurdat_epa main 1118 1053 O_________O___ hurdat_epa EP071988 18.0000 -144.300 TD 25 1010 -1 18.0000 -144.300 1 25 13 279
1988211N15225 1988 41 EP CP GILMA 1988-08-01 03:00:00 TS 18.1012 -144.937 main 1053 978 P_________P___ EP071988 18.0998 -144.950 TD 25 1010 -1 18.1067 -144.943 1 25 13 279
1988211N15225 1988 41 EP CP GILMA 1988-08-01 06:00:00 TS 18.2014 -145.599 25 1010 hurdat_epa main 978 914 O_________P___ hurdat_epa EP071988 18.2000 -145.600 TD 25 1010 -1 18.2068 -145.593 1 25 13 279
1988211N15225 1988 41 EP CP GILMA 1988-08-01 09:00:00 TS 18.3005 -146.251 main 904 839 P_________P___ EP071988 18.2998 -146.250 TD 25 1010 -1 18.3035 -146.246 1 25 13 279
1988211N15225 1988 41 EP CP GILMA 1988-08-01 12:00:00 TS 18.4000 -146.900 25 1010 hurdat_epa main 839 775 O_________O___ hurdat_epa EP071988 18.4000 -146.900 TD 25 1010 -1 18.4000 -146.900 1 25 12 279
1988211N15225 1988 41 EP CP GILMA 1988-08-01 15:00:00 TS 18.4981 -147.550 main 765 700 P_________P___ EP071988 18.4998 -147.550 TD 25 1010 -1 18.4912 -147.550 1 25 12 279
1988211N15225 1988 41 EP CP GILMA 1988-08-01 18:00:00 TS 18.5968 -148.200 25 1010 hurdat_epa main 700 636 O_________P___ hurdat_epa EP071988 18.6000 -148.200 TD 25 1010 -1 18.5841 -148.201 1 25 12 279
1988211N15225 1988 41 EP CP GILMA 1988-08-01 21:00:00 TS 18.6908 -148.850 main 626 562 P_________P___ EP071988 18.6923 -148.850 TD 25 1010 -1 18.6850 -148.851 1 25 12 279
1988211N15225 1988 41 EP CP GILMA 1988-08-02 00:00:00 TS 18.8000 -149.500 25 1010 hurdat_epa main 562 498 O_________O___ hurdat_epa EP071988 18.8000 -149.500 TD 25 1010 -1 18.8000 -149.500 1 25 13 281
1988211N15225 1988 41 EP CP GILMA 1988-08-02 03:00:00 TS 18.9400 -150.150 main 487 422 P_________P___ EP071988 18.9423 -150.150 TD 25 1010 -1 18.9309 -150.150 1 23 13 284
1988211N15225 1988 41 EP CP GILMA 1988-08-02 06:00:00 TS 19.0953 -150.800 25 1010 hurdat_epa main 422 358 O_________P___ hurdat_epa EP071988 19.1000 -150.800 TD 25 1010 -1 19.0766 -150.800 1 22 13 284
1988211N15225 1988 41 EP CP GILMA 1988-08-02 09:00:00 TS 19.2466 -151.450 main 347 283 P_________P___ EP071988 19.2498 -151.450 TD 22 1010 -1 19.2340 -151.450 1 21 13 284
1988211N15225 1988 41 EP CP GILMA 1988-08-02 12:00:00 TS 19.4000 -152.100 20 1010 hurdat_epa main 283 220 O_________O___ hurdat_epa EP071988 19.4000 -152.100 TD 20 1010 -1 19.4000 -152.100 1 20 13 284
1988211N15225 1988 41 EP CP GILMA 1988-08-02 15:00:00 TS 19.5448 -152.750 main 209 148 P_________P___ EP071988 19.5423 -152.750 TD 20 1010 -1 19.5549 -152.751 1 20 13 284
1988211N15225 1988 41 EP CP GILMA 1988-08-02 18:00:00 TS 19.7038 -153.400 20 1010 hurdat_epa main 148 94 O_________P___ hurdat_epa EP071988 19.7000 -153.400 TD 20 1010 -1 19.7191 -153.401 1 20 13 286
1988211N15225 1988 41 EP CP GILMA 1988-08-02 21:00:00 TS 19.8876 -154.050 main 85 47 P_________P___ EP071988 19.8848 -154.050 TD 20 1010 -1 19.8987 -154.051 1 20 13 288
1988211N15225 1988 41 EP CP GILMA 1988-08-03 00:00:00 TS 20.1000 -154.700 20 1010 hurdat_epa main 47 24 O_________O___ hurdat_epa EP071988 20.1000 -154.700 TD 20 1010 -1 20.1000 -154.700 1 20 13 290
1988211N15225 1988 41 EP CP GILMA 1988-08-03 03:00:00 TS 20.3392 -155.350 main 30 11 P_________P___ EP071988 20.3423 -155.350 TD 20 1010 -1 20.3270 -155.349 1 20 13 292
1988211N15225 1988 41 EP CP GILMA 1988-08-03 06:00:00 TS 20.5949 -156.000 20 1010 hurdat_epa main 11 0 O_________P___ hurdat_epa EP071988 20.6000 -156.000 TD 20 1010 -1 20.5744 -155.998 1 20 13 293
1988211N15225 1988 41 EP CP GILMA 1988-08-03 09:00:00 TS 20.8493 -156.649 main 0 0 P_________P___ EP071988 20.8530 -156.650 TD 20 1010 -1 20.8347 -156.648 1 20 13 293
1988211N15225 1988 41 EP CP GILMA 1988-08-03 12:00:00 TS 21.1000 -157.300 20 1010 hurdat_epa main 38 O_________O___ hurdat_epa EP071988 21.1000 -157.300 TD 20 1010 -1 21.1000 -157.300 1 20 13 292

About IBTrACS Database

This database is a web-friendly format of International Best Track Archive for Climate Stewardship (IBTrACS), a global best track data archive curated by NOAA dating back to 1842.

Updated: 2021-10-27